createdAt,value
2023-03-06T00:00:33.231Z,21.17
2023-03-06T00:03:00.978Z,17.23
2023-03-06T00:05:28.846Z,22.07
2023-03-06T00:07:56.424Z,22.57
2023-03-06T00:10:29.792Z,21.70
2023-03-06T00:13:17.019Z,20.00
2023-03-06T00:15:45.623Z,32.57
2023-03-06T00:18:13.181Z,26.17
2023-03-06T00:20:42.343Z,25.30
2023-03-06T00:23:10.629Z,20.67
2023-03-06T00:25:38.999Z,26.97
2023-03-06T00:28:06.532Z,25.40
2023-03-06T00:30:34.432Z,29.53
2023-03-06T00:33:02.009Z,33.10
2023-03-06T00:35:30.228Z,138.27
2023-03-06T00:37:59.949Z,88.50
2023-03-06T00:42:54.847Z,41.80
2023-03-06T00:45:22.529Z,50.83
2023-03-06T00:47:50.086Z,43.83
2023-03-06T00:50:17.454Z,48.83
2023-03-06T00:52:45.107Z,39.50
2023-03-06T00:55:12.794Z,32.90
2023-03-06T00:57:41.196Z,62.33
2023-03-06T01:00:11.037Z,51.63
2023-03-06T01:02:38.796Z,47.17
2023-03-06T01:05:07.122Z,50.67
2023-03-06T01:07:36.696Z,46.50
2023-03-06T01:10:06.257Z,43.17
2023-03-06T01:12:33.558Z,50.67
2023-03-06T01:15:01.178Z,49.30
2023-03-06T01:17:29.206Z,52.80
2023-03-06T01:19:57.681Z,44.83
2023-03-06T01:22:25.330Z,53.33
2023-03-06T01:24:53.472Z,50.97
2023-03-06T01:27:21.895Z,41.95
2023-03-06T01:29:49.797Z,49.47
2023-03-06T01:32:17.280Z,46.53
2023-03-06T01:34:44.568Z,44.57
2023-03-06T01:37:12.211Z,33.47
2023-03-06T01:39:39.546Z,41.70
2023-03-06T01:42:07.326Z,40.03
2023-03-06T01:44:34.984Z,48.37
2023-03-06T01:47:04.957Z,40.00
2023-03-06T01:49:36.992Z,34.00
2023-03-06T01:52:12.062Z,25.73
2023-03-06T01:54:44.992Z,32.40
2023-03-06T01:57:20.872Z,30.40
2023-03-06T01:59:56.173Z,36.00
2023-03-06T02:02:24.912Z,38.90
2023-03-06T02:04:52.881Z,27.37
2023-03-06T02:07:21.788Z,26.80
2023-03-06T02:09:49.142Z,25.52
2023-03-06T02:12:19.226Z,27.87
2023-03-06T02:14:47.860Z,23.23
2023-03-06T02:17:18.770Z,31.77
2023-03-06T02:19:58.280Z,27.03
2023-03-06T02:22:33.538Z,32.67
2023-03-06T02:25:15.530Z,32.00
2023-03-06T02:27:43.378Z,31.63
2023-03-06T02:30:15.353Z,28.00
2023-03-06T02:32:43.152Z,24.60
2023-03-06T02:35:19.989Z,24.73
2023-03-06T02:37:47.997Z,33.30
2023-03-06T02:40:18.957Z,34.80
2023-03-06T02:42:49.700Z,34.27
2023-03-06T02:45:38.066Z,38.83
2023-03-06T02:48:06.248Z,37.97
2023-03-06T02:50:34.107Z,40.75
2023-03-06T02:53:01.824Z,38.97
2023-03-06T02:55:30.675Z,31.87
2023-03-06T02:57:58.596Z,31.63
2023-03-06T03:00:26.686Z,32.07
2023-03-06T03:02:54.609Z,29.63
2023-03-06T03:05:22.394Z,29.00
2023-03-06T03:07:50.325Z,39.97
2023-03-06T03:10:17.974Z,66.70
2023-03-06T03:12:46.212Z,70.27
2023-03-06T03:15:14.041Z,93.33
2023-03-06T03:17:41.850Z,55.30
2023-03-06T03:20:13.993Z,90.40
2023-03-06T03:22:41.512Z,66.77
2023-03-06T03:25:09.339Z,45.77
2023-03-06T03:27:37.197Z,38.70
2023-03-06T03:30:05.100Z,34.30
2023-03-06T03:32:32.425Z,36.53
2023-03-06T03:35:00.324Z,43.67
2023-03-06T03:37:28.010Z,35.27
2023-03-06T03:39:56.625Z,33.73
2023-03-06T03:42:24.664Z,47.13
2023-03-06T03:44:51.952Z,40.43
2023-03-06T03:47:20.430Z,37.25
2023-03-06T03:49:48.382Z,30.13
2023-03-06T03:52:15.903Z,43.38
2023-03-06T03:54:43.217Z,43.63
2023-03-06T03:57:10.928Z,45.63
2023-03-06T03:59:38.841Z,39.90
2023-03-06T04:02:06.416Z,46.70
2023-03-06T04:04:35.194Z,42.83
2023-03-06T04:07:04.521Z,36.97
2023-03-06T04:09:32.064Z,39.35
2023-03-06T04:11:59.693Z,34.80
2023-03-06T04:14:27.078Z,34.67
2023-03-06T04:16:54.573Z,32.83
2023-03-06T04:19:22.731Z,36.27
2023-03-06T04:21:50.425Z,32.57
2023-03-06T04:24:17.744Z,32.07
2023-03-06T04:26:46.105Z,30.60
2023-03-06T04:29:13.906Z,33.03
2023-03-06T04:31:41.282Z,33.17
2023-03-06T04:34:09.173Z,32.45
2023-03-06T04:36:36.995Z,30.50
2023-03-06T04:39:04.807Z,32.33
2023-03-06T04:41:32.733Z,34.30
2023-03-06T04:44:00.146Z,30.87
2023-03-06T04:46:27.468Z,40.10
2023-03-06T04:48:55.197Z,65.03
2023-03-06T04:51:22.615Z,65.90
2023-03-06T04:53:50.258Z,56.58
2023-03-06T04:56:18.110Z,54.38
2023-03-06T04:58:45.569Z,48.03
2023-03-06T05:01:13.046Z,55.22
2023-03-06T05:03:41.000Z,135.33
2023-03-06T05:06:08.634Z,248.45
2023-03-06T05:08:35.986Z,138.40
2023-03-06T05:11:04.041Z,100.87
2023-03-06T05:13:31.370Z,50.20
2023-03-06T05:16:03.858Z,40.03
2023-03-06T05:18:32.799Z,53.80
2023-03-06T05:21:00.766Z,44.25
2023-03-06T05:23:30.192Z,37.23
2023-03-06T05:25:58.355Z,34.47
2023-03-06T05:28:26.551Z,28.83
2023-03-06T05:30:53.872Z,38.47
2023-03-06T05:33:21.570Z,32.97
2023-03-06T05:35:49.679Z,38.60
2023-03-06T05:38:18.577Z,48.80
2023-03-06T05:40:46.701Z,41.58
2023-03-06T05:43:14.068Z,37.70
2023-03-06T05:45:41.776Z,33.73
2023-03-06T05:48:12.205Z,27.77
2023-03-06T05:50:40.004Z,31.27
2023-03-06T05:53:07.349Z,41.53
2023-03-06T05:55:35.106Z,38.27
2023-03-06T05:58:02.401Z,44.63
2023-03-06T06:00:29.782Z,43.87
2023-03-06T06:03:00.727Z,37.70
2023-03-06T06:05:28.187Z,27.73
2023-03-06T06:07:55.509Z,22.27
2023-03-06T06:10:23.181Z,36.20
2023-03-06T06:12:50.470Z,82.23
2023-03-06T06:15:18.048Z,28.50
2023-03-06T06:17:45.875Z,30.53
2023-03-06T06:20:13.960Z,49.10
2023-03-06T06:22:41.497Z,45.17
2023-03-06T06:25:09.498Z,50.30
2023-03-06T06:27:36.848Z,46.33
2023-03-06T06:30:05.551Z,50.70
2023-03-06T06:32:33.368Z,41.55
2023-03-06T06:35:00.753Z,37.63
2023-03-06T06:37:28.237Z,49.07
2023-03-06T06:39:55.905Z,36.67
2023-03-06T06:42:33.332Z,39.77
2023-03-06T06:45:05.397Z,30.47
2023-03-06T06:47:34.443Z,51.57
2023-03-06T06:50:02.045Z,35.38
2023-03-06T06:52:29.746Z,35.60
2023-03-06T06:54:57.018Z,32.37
2023-03-06T06:57:24.366Z,27.37
2023-03-06T06:59:53.969Z,28.00
2023-03-06T07:02:22.784Z,41.60
2023-03-06T07:05:03.196Z,34.37
2023-03-06T07:07:35.244Z,50.97
2023-03-06T07:10:08.925Z,36.83
2023-03-06T07:12:37.226Z,23.43
2023-03-06T07:15:06.312Z,27.37
2023-03-06T07:17:33.835Z,35.17
2023-03-06T07:20:01.603Z,23.77
2023-03-06T07:22:31.960Z,25.77
2023-03-06T07:25:06.333Z,35.70
2023-03-06T07:27:33.652Z,29.50
2023-03-06T07:30:01.046Z,29.97
2023-03-06T07:32:28.919Z,30.73
2023-03-06T07:35:12.925Z,27.40
2023-03-06T07:37:44.615Z,34.37
2023-03-06T07:40:12.600Z,26.63
2023-03-06T07:42:39.930Z,27.03
2023-03-06T07:45:12.502Z,23.13
2023-03-06T07:50:08.036Z,19.87
2023-03-06T07:52:35.799Z,21.02
2023-03-06T07:55:03.226Z,19.60
2023-03-06T07:57:30.788Z,19.63
2023-03-06T07:59:58.374Z,23.07
2023-03-06T08:02:25.842Z,23.87
2023-03-06T08:04:54.934Z,17.77
2023-03-06T08:07:23.141Z,20.30
2023-03-06T08:09:50.784Z,18.02
2023-03-06T08:12:18.396Z,18.17
2023-03-06T08:14:45.722Z,19.30
2023-03-06T08:17:13.077Z,16.27
2023-03-06T08:19:40.752Z,16.87
2023-03-06T08:22:08.245Z,16.50
2023-03-06T08:24:35.549Z,20.37
2023-03-06T08:27:03.779Z,20.60
2023-03-06T08:29:32.295Z,15.27
2023-03-06T08:31:59.811Z,14.68
2023-03-06T08:34:27.507Z,24.50
2023-03-06T08:36:54.918Z,15.80
2023-03-06T08:39:23.861Z,14.03
2023-03-06T08:41:51.526Z,14.40
2023-03-06T08:44:18.781Z,14.47
2023-03-06T08:46:46.154Z,14.20
2023-03-06T08:49:14.101Z,14.93
2023-03-06T08:51:42.646Z,14.17
2023-03-06T08:54:13.099Z,10.90
2023-03-06T08:56:40.915Z,15.73
2023-03-06T08:59:09.573Z,15.93
2023-03-06T09:01:38.723Z,13.18
2023-03-06T09:04:12.014Z,11.77
2023-03-06T09:06:42.568Z,22.70
2023-03-06T09:09:10.623Z,10.97
2023-03-06T09:11:38.340Z,18.70
2023-03-06T09:14:06.011Z,13.67
2023-03-06T09:16:33.897Z,15.27
2023-03-06T09:19:01.277Z,15.97
2023-03-06T09:21:28.890Z,14.70
2023-03-06T09:23:57.151Z,14.00
2023-03-06T09:26:32.762Z,12.97
2023-03-06T09:29:03.857Z,12.60
2023-03-06T09:31:32.258Z,11.37
2023-03-06T09:33:59.557Z,12.18
2023-03-06T09:36:27.254Z,10.97
2023-03-06T09:38:54.609Z,12.10
2023-03-06T09:41:30.434Z,17.17
2023-03-06T09:44:14.804Z,8.30
2023-03-06T09:47:00.666Z,12.93
2023-03-06T09:50:09.950Z,11.73
2023-03-06T09:53:06.905Z,12.83
2023-03-06T09:55:39.852Z,13.10
2023-03-06T09:58:22.311Z,10.80
2023-03-06T10:00:59.238Z,29.30
2023-03-06T10:03:39.632Z,14.13
2023-03-06T10:06:13.245Z,13.83
2023-03-06T10:08:52.749Z,11.60
2023-03-06T10:14:07.936Z,13.30
2023-03-06T10:16:35.346Z,11.17
2023-03-06T10:19:10.516Z,11.83
2023-03-06T10:22:03.372Z,11.50
2023-03-06T10:24:57.740Z,12.13
2023-03-06T10:27:43.994Z,8.97
2023-03-06T10:30:14.672Z,9.30
2023-03-06T10:32:58.691Z,11.00
2023-03-06T10:35:34.892Z,9.63
2023-03-06T10:38:24.240Z,8.50
2023-03-06T10:40:59.741Z,8.93
2023-03-06T10:43:27.755Z,10.80
2023-03-06T10:45:55.830Z,11.12
2023-03-06T10:48:26.464Z,9.70
2023-03-06T10:51:28.306Z,12.37
2023-03-06T10:54:01.809Z,10.00
2023-03-06T10:56:43.694Z,8.87
2023-03-06T10:59:21.675Z,15.63
2023-03-06T11:01:51.222Z,10.30
2023-03-06T11:04:33.905Z,10.63
2023-03-06T11:07:28.659Z,10.23
2023-03-06T11:09:59.360Z,9.50
2023-03-06T11:12:40.986Z,14.43
2023-03-06T11:15:14.816Z,9.87
2023-03-06T11:17:53.917Z,11.00
2023-03-06T11:20:41.232Z,12.33
2023-03-06T11:23:22.074Z,12.20
2023-03-06T11:25:56.518Z,7.50
2023-03-06T11:28:46.313Z,9.77
2023-03-06T11:31:21.208Z,11.23
2023-03-06T11:33:59.134Z,11.13
2023-03-06T11:36:33.930Z,10.35
2023-03-06T11:39:04.886Z,12.43
2023-03-06T11:41:58.330Z,8.53
2023-03-06T11:44:43.827Z,11.90
2023-03-06T11:47:16.800Z,12.20
2023-03-06T11:49:49.956Z,11.07
2023-03-06T11:52:56.315Z,9.63
2023-03-06T11:55:50.988Z,11.77
2023-03-06T11:59:00.985Z,12.10
2023-03-06T12:01:50.345Z,11.37
2023-03-06T12:04:48.836Z,12.07
2023-03-06T12:07:22.056Z,9.50
2023-03-06T12:09:55.400Z,9.27
2023-03-06T12:12:31.230Z,8.77
2023-03-06T12:15:15.503Z,9.33
2023-03-06T12:18:06.155Z,9.53
2023-03-06T12:21:17.340Z,12.47
2023-03-06T12:24:05.086Z,10.13
2023-03-06T12:26:57.045Z,9.10
2023-03-06T12:29:33.801Z,8.60
2023-03-06T12:32:23.158Z,8.47
2023-03-06T12:35:08.925Z,9.70
2023-03-06T12:38:08.890Z,9.87
2023-03-06T12:41:00.617Z,8.53
2023-03-06T12:43:40.617Z,11.27
2023-03-06T12:46:17.780Z,9.73
2023-03-06T12:49:08.351Z,7.50
2023-03-06T12:51:36.842Z,10.60
2023-03-06T12:54:04.641Z,13.80
2023-03-06T12:56:33.593Z,8.33
2023-03-06T12:59:02.745Z,14.90
2023-03-06T13:01:55.744Z,9.10
2023-03-06T13:04:47.993Z,7.60
2023-03-06T13:07:43.894Z,11.10
2023-03-06T13:10:28.006Z,10.33
2023-03-06T13:13:01.318Z,13.63
2023-03-06T13:15:40.890Z,9.10
2023-03-06T13:18:24.192Z,7.60
2023-03-06T13:20:56.202Z,8.17
2023-03-06T13:23:30.238Z,10.30
2023-03-06T13:26:00.035Z,6.53
2023-03-06T13:28:50.372Z,10.77
2023-03-06T13:31:36.579Z,9.13
2023-03-06T13:34:05.485Z,7.23
2023-03-06T13:36:39.559Z,10.40
2023-03-06T13:39:09.747Z,11.17
2023-03-06T13:41:58.531Z,7.80
2023-03-06T13:47:02.453Z,16.37
2023-03-06T13:49:30.707Z,13.70
2023-03-06T13:52:11.002Z,10.83
2023-03-06T13:54:44.596Z,11.37
2023-03-06T13:57:15.022Z,8.40
2023-03-06T14:00:08.957Z,11.43
2023-03-06T14:02:43.431Z,8.37
2023-03-06T14:05:14.026Z,7.73
2023-03-06T14:07:48.087Z,7.30
2023-03-06T14:10:21.416Z,7.73
2023-03-06T14:12:49.094Z,8.50
2023-03-06T14:15:46.147Z,6.73
2023-03-06T14:18:16.918Z,7.13
2023-03-06T14:20:50.603Z,8.30
2023-03-06T14:23:21.387Z,8.87
2023-03-06T14:25:55.538Z,8.90
2023-03-06T14:28:31.646Z,10.43
2023-03-06T14:31:01.352Z,7.67
2023-03-06T14:33:37.477Z,8.60
2023-03-06T14:36:09.578Z,9.97
2023-03-06T14:38:45.417Z,8.77
2023-03-06T14:41:14.145Z,16.97
2023-03-06T14:43:41.930Z,10.95
2023-03-06T14:46:20.222Z,8.77
2023-03-06T14:48:49.356Z,8.15
2023-03-06T14:51:18.687Z,9.00
2023-03-06T14:53:49.135Z,6.97
2023-03-06T14:56:20.391Z,8.53
2023-03-06T14:59:03.267Z,7.73
2023-03-06T15:01:51.204Z,23.80
2023-03-06T15:05:04.352Z,11.73
2023-03-06T15:07:33.594Z,9.73
2023-03-06T15:10:01.275Z,8.77
2023-03-06T15:12:31.330Z,9.20
2023-03-06T15:15:10.659Z,7.37
2023-03-06T15:17:48.456Z,9.43
2023-03-06T15:21:05.322Z,8.27
2023-03-06T15:23:38.645Z,9.27
2023-03-06T15:26:29.368Z,7.07
2023-03-06T15:29:09.429Z,6.10
2023-03-06T15:31:42.762Z,6.30
2023-03-06T15:34:10.044Z,7.10
2023-03-06T15:36:49.214Z,7.70
2023-03-06T15:39:36.463Z,20.08
2023-03-06T15:42:18.327Z,21.00
2023-03-06T15:44:51.308Z,11.70
2023-03-06T15:47:19.676Z,9.00
2023-03-06T15:49:52.088Z,8.90
2023-03-06T15:52:21.644Z,9.50
2023-03-06T15:54:49.456Z,5.67
2023-03-06T15:57:25.382Z,7.33
2023-03-06T15:59:54.055Z,7.53
2023-03-06T16:02:23.719Z,9.20
2023-03-06T16:04:53.623Z,8.37
2023-03-06T16:07:21.032Z,12.70
2023-03-06T16:09:48.855Z,14.37
2023-03-06T16:12:21.650Z,7.80
2023-03-06T16:14:49.646Z,8.03
2023-03-06T16:17:17.656Z,8.70
2023-03-06T16:19:44.886Z,7.43
2023-03-06T16:22:12.329Z,8.73
2023-03-06T16:24:40.002Z,12.23
2023-03-06T16:27:15.392Z,15.20
2023-03-06T16:29:43.041Z,13.43
2023-03-06T16:32:11.366Z,15.37
2023-03-06T16:34:38.745Z,11.20
2023-03-06T16:37:06.595Z,26.23
2023-03-06T16:39:34.072Z,37.73
2023-03-06T16:42:01.409Z,55.57
2023-03-06T16:44:29.062Z,46.13
2023-03-06T16:46:56.370Z,28.73
2023-03-06T16:49:25.523Z,20.53
2023-03-06T16:51:53.726Z,10.60
2023-03-06T16:54:21.997Z,13.23
2023-03-06T16:56:49.341Z,11.98
2023-03-06T16:59:17.275Z,10.80
2023-03-06T17:01:44.834Z,15.60
2023-03-06T17:04:12.697Z,21.37
2023-03-06T17:06:41.707Z,17.37
2023-03-06T17:09:11.091Z,23.90
2023-03-06T17:11:43.572Z,18.40
2023-03-06T17:14:11.217Z,14.90
2023-03-06T17:16:40.586Z,8.27
2023-03-06T17:19:08.034Z,11.10
2023-03-06T17:21:38.547Z,17.07
2023-03-06T17:24:06.698Z,13.60
2023-03-06T17:26:36.709Z,10.23
2023-03-06T17:29:06.928Z,12.20
2023-03-06T17:31:34.390Z,11.37
2023-03-06T17:34:01.748Z,10.67
2023-03-06T17:36:31.906Z,11.77
2023-03-06T17:39:01.024Z,7.73
2023-03-06T17:41:28.794Z,9.93
2023-03-06T17:43:56.590Z,13.57
2023-03-06T17:46:24.416Z,11.40
2023-03-06T17:48:52.105Z,9.40
2023-03-06T17:51:19.457Z,12.20
2023-03-06T17:53:46.887Z,9.13
2023-03-06T17:56:15.768Z,9.80
2023-03-06T17:58:43.101Z,13.48
2023-03-06T18:01:16.844Z,15.57
2023-03-06T18:03:46.621Z,12.80
2023-03-06T18:06:14.950Z,15.97
2023-03-06T18:08:43.187Z,31.52
2023-03-06T18:11:11.506Z,18.37
2023-03-06T18:13:42.673Z,11.93
2023-03-06T18:16:12.340Z,19.73
2023-03-06T18:18:40.514Z,14.13
2023-03-06T18:21:10.377Z,14.90
2023-03-06T18:23:38.361Z,12.37
2023-03-06T18:26:15.504Z,13.77
2023-03-06T18:28:48.468Z,17.77
2023-03-06T18:31:26.804Z,12.00
2023-03-06T18:33:59.315Z,29.73
2023-03-06T18:36:29.933Z,14.03
2023-03-06T18:38:57.663Z,11.30
2023-03-06T18:41:25.340Z,22.53
2023-03-06T18:43:55.480Z,37.10
2023-03-06T18:46:23.692Z,45.47
2023-03-06T18:48:51.293Z,45.73
2023-03-06T18:51:20.339Z,45.87
2023-03-06T18:53:47.837Z,51.37
2023-03-06T18:56:21.035Z,52.83
2023-03-06T18:58:50.481Z,57.63
2023-03-06T19:01:18.079Z,43.33
2023-03-06T19:03:46.096Z,72.20
2023-03-06T19:06:17.046Z,66.70
2023-03-06T19:08:45.117Z,63.77
2023-03-06T19:11:14.968Z,57.67
2023-03-06T19:13:43.125Z,81.13
2023-03-06T19:16:18.503Z,66.80
2023-03-06T19:18:46.251Z,66.67
2023-03-06T19:21:16.722Z,51.93
2023-03-06T19:23:44.490Z,47.53
2023-03-06T19:26:12.830Z,41.53
2023-03-06T19:28:41.856Z,24.43
2023-03-06T19:31:20.668Z,74.35
2023-03-06T19:36:17.672Z,128.05
2023-03-06T19:38:45.598Z,107.70
2023-03-06T19:41:15.416Z,94.70
2023-03-06T19:43:43.479Z,100.18
2023-03-06T19:46:14.378Z,78.30
2023-03-06T19:48:42.989Z,37.13
2023-03-06T19:51:11.109Z,68.93
2023-03-06T19:53:40.336Z,55.17
2023-03-06T19:56:09.498Z,27.43
2023-03-06T19:58:37.539Z,44.88
2023-03-06T20:01:11.905Z,14.60
2023-03-06T20:03:40.880Z,17.43
2023-03-06T20:06:13.847Z,22.20
2023-03-06T20:08:43.241Z,13.93
2023-03-06T20:11:20.608Z,13.85
2023-03-06T20:13:48.927Z,15.30
2023-03-06T20:16:19.778Z,17.73
2023-03-06T20:18:47.215Z,18.23
2023-03-06T20:21:15.662Z,15.40
2023-03-06T20:23:43.528Z,12.90
2023-03-06T20:26:13.072Z,11.70
2023-03-06T20:28:42.160Z,11.57
2023-03-06T20:31:29.815Z,13.10
2023-03-06T20:33:59.752Z,29.63
2023-03-06T20:36:31.374Z,25.93
2023-03-06T20:39:00.794Z,19.07
2023-03-06T20:41:29.811Z,15.90
2023-03-06T20:43:58.806Z,13.60
2023-03-06T20:46:27.096Z,11.53
2023-03-06T20:48:55.103Z,13.07
2023-03-06T20:51:28.924Z,16.47
2023-03-06T20:53:56.842Z,11.30
2023-03-06T20:56:26.629Z,9.67
2023-03-06T20:58:54.233Z,10.80
2023-03-06T21:01:24.520Z,10.43
2023-03-06T21:03:53.595Z,16.40
2023-03-06T21:06:21.599Z,15.55
2023-03-06T21:08:50.073Z,14.32
2023-03-06T21:11:18.312Z,13.70
2023-03-06T21:13:45.804Z,10.85
2023-03-06T21:16:19.075Z,20.70
2023-03-06T21:18:47.405Z,32.97
2023-03-06T21:21:18.642Z,31.55
2023-03-06T21:23:46.988Z,20.20
2023-03-06T21:26:17.562Z,21.42
2023-03-06T21:28:45.080Z,13.53
2023-03-06T21:31:14.750Z,12.10
2023-03-06T21:33:43.765Z,27.70
2023-03-06T21:36:11.551Z,14.77
2023-03-06T21:38:39.365Z,9.47
2023-03-06T21:41:12.958Z,9.53
2023-03-06T21:43:40.920Z,10.70
2023-03-06T21:46:09.390Z,11.67
2023-03-06T21:48:37.084Z,11.63
2023-03-06T21:51:10.672Z,19.00
2023-03-06T21:53:41.216Z,12.53
2023-03-06T21:56:09.195Z,11.13
2023-03-06T21:58:37.111Z,11.20
2023-03-06T22:01:18.772Z,11.60
2023-03-06T22:03:46.621Z,11.70
2023-03-06T22:06:17.352Z,10.57
2023-03-06T22:08:45.489Z,12.87
2023-03-06T22:11:16.033Z,9.20
2023-03-06T22:13:44.200Z,11.93
2023-03-06T22:16:12.918Z,10.27
2023-03-06T22:18:44.173Z,9.35
2023-03-06T22:21:13.538Z,12.03
2023-03-06T22:23:41.189Z,15.17
2023-03-06T22:26:13.776Z,12.30
2023-03-06T22:28:42.208Z,13.43
2023-03-06T22:31:14.840Z,11.60
2023-03-06T22:33:43.150Z,11.67
2023-03-06T22:36:13.846Z,13.37
2023-03-06T22:38:43.926Z,12.67
2023-03-06T22:41:13.442Z,10.17
2023-03-06T22:43:41.103Z,10.40
2023-03-06T22:46:14.665Z,11.13
2023-03-06T22:48:42.650Z,14.10
2023-03-06T22:51:20.972Z,12.63
2023-03-06T22:53:49.017Z,16.55
2023-03-06T22:56:18.790Z,11.93
2023-03-06T22:58:46.621Z,14.50
2023-03-06T23:01:20.325Z,11.10
2023-03-06T23:03:50.109Z,12.23
2023-03-06T23:06:24.247Z,8.90
2023-03-06T23:08:54.590Z,19.10
2023-03-06T23:11:23.626Z,17.03
2023-03-06T23:14:12.309Z,18.70
2023-03-06T23:16:58.303Z,17.35
2023-03-06T23:19:44.036Z,15.03
2023-03-06T23:22:30.081Z,16.73
2023-03-06T23:25:15.780Z,17.33
2023-03-06T23:27:43.434Z,17.60
2023-03-06T23:30:11.425Z,30.73
2023-03-06T23:32:38.881Z,35.03
2023-03-06T23:35:07.827Z,31.30
2023-03-06T23:37:35.077Z,33.42
2023-03-06T23:40:02.498Z,26.77
2023-03-06T23:42:30.238Z,27.90
2023-03-06T23:44:57.543Z,31.30
2023-03-06T23:47:25.044Z,31.37
2023-03-06T23:49:52.671Z,38.67
2023-03-06T23:52:19.974Z,35.03
2023-03-06T23:54:49.280Z,38.97
2023-03-06T23:57:17.011Z,29.50
2023-03-06T23:59:44.781Z,31.60
